Time;durP1;ratioP1;P1;durP2;ratioP2;P2;SDS_P1;SDS_P2;PMS_P1;PMS_P2;Temp;Humidity;BMP_temperature;BMP_pressure;BME280_temperature;BME280_humidity;BME280_pressure;Samples;Min_cycle;Max_cycle;Signal;HPM_P1;HPM_P2
2022/12/03 07:03:47;;;;;;;105.18;31.05;;;0.50;99.90;;;;;;7602668;19;21207;-71
2022/12/03 07:06:19;;;;;;;93.03;31.92;;;0.40;99.90;;;;;;7618945;19;20018;-71
2022/12/03 07:08:51;;;;;;;101.00;31.25;;;0.50;99.90;;;;;;7615763;19;20026;-71
2022/12/03 07:11:38;;;;;;;122.22;32.97;;;0.50;99.90;;;;;;7596064;19;20061;-71
2022/12/03 07:14:10;;;;;;;100.90;31.60;;;0.60;99.90;;;;;;7616336;19;20026;-71
2022/12/03 07:16:43;;;;;;;109.00;34.05;;;0.70;99.90;;;;;;7595495;19;20022;-71
2022/12/03 07:19:16;;;;;;;97.95;32.00;;;0.80;99.90;;;;;;7610620;19;20014;-71
2022/12/03 07:21:48;;;;;;;108.07;32.97;;;0.80;99.90;;;;;;7597940;19;20101;-71
2022/12/03 07:24:20;;;;;;;93.75;29.75;;;0.90;99.90;;;;;;7605953;19;21372;-73
2022/12/03 07:26:52;;;;;;;92.00;30.65;;;0.90;99.90;;;;;;7622479;19;20033;-70
2022/12/03 07:29:24;;;;;;;108.07;31.85;;;1.00;99.90;;;;;;7622302;19;20010;-73
2022/12/03 07:31:56;;;;;;;104.05;32.72;;;1.00;99.90;;;;;;7627162;19;21129;-71
2022/12/03 07:34:28;;;;;;;103.13;32.55;;;1.00;99.90;;;;;;7619318;19;20053;-71
2022/12/03 07:37:00;;;;;;;94.13;30.55;;;1.00;99.90;;;;;;7610805;19;22943;-71
2022/12/03 07:39:32;;;;;;;92.85;30.60;;;1.10;99.90;;;;;;7610212;19;20056;-70
2022/12/03 07:42:08;;;;;;;82.57;28.47;;;1.10;99.90;;;;;;7608147;19;20484;-71
2022/12/03 07:44:40;;;;;;;100.88;31.65;;;1.10;99.90;;;;;;7603629;19;20709;-71
2022/12/03 07:47:12;;;;;;;90.82;29.52;;;1.10;99.90;;;;;;7600661;19;20517;-72
2022/12/03 07:49:44;;;;;;;108.35;33.42;;;1.20;99.90;;;;;;7607955;19;20073;-72
2022/12/03 07:52:16;;;;;;;94.25;29.30;;;1.20;99.90;;;;;;7609328;19;20029;-73
2022/12/03 07:54:48;;;;;;;101.78;31.45;;;1.10;99.90;;;;;;7625687;19;20491;-72
2022/12/03 07:57:20;;;;;;;81.25;28.63;;;1.10;99.90;;;;;;7620908;19;20021;-72
2022/12/03 07:59:52;;;;;;;83.95;29.25;;;1.10;99.90;;;;;;7624791;19;20022;-72
2022/12/03 08:02:24;;;;;;;85.00;29.60;;;1.20;99.90;;;;;;7595379;19;20014;-72
2022/12/03 08:04:57;;;;;;;72.43;26.60;;;1.20;99.90;;;;;;7612435;19;20606;-72
2022/12/03 08:07:29;;;;;;;82.72;29.42;;;1.20;99.90;;;;;;7601369;19;20021;-71
2022/12/03 08:10:01;;;;;;;88.70;30.05;;;1.20;99.90;;;;;;7587296;19;20022;-72
2022/12/03 08:12:39;;;;;;;85.40;29.05;;;1.20;99.90;;;;;;7590646;19;20022;-72
2022/12/03 08:15:19;;;;;;;76.78;26.38;;;1.20;99.90;;;;;;7571842;19;20033;-73
2022/12/03 08:17:57;;;;;;;87.18;27.88;;;1.20;99.90;;;;;;7591045;19;20026;-73
2022/12/03 08:20:33;;;;;;;88.47;29.77;;;1.30;99.90;;;;;;7586290;19;21884;-73
2022/12/03 08:23:15;;;;;;;78.65;28.50;;;1.20;99.90;;;;;;7587946;19;20022;-73
2022/12/03 08:25:50;;;;;;;81.82;27.65;;;1.20;99.90;;;;;;7571686;19;20414;-71
2022/12/03 08:28:27;;;;;;;85.97;29.63;;;1.20;99.90;;;;;;7594433;19;20018;-71
2022/12/03 08:31:06;;;;;;;79.05;28.95;;;1.20;99.90;;;;;;7568560;19;20022;-71
2022/12/03 08:33:40;;;;;;;81.60;28.70;;;1.20;99.90;;;;;;7542250;19;20117;-71
2022/12/03 08:36:28;;;;;;;80.68;27.80;;;1.20;99.90;;;;;;7589528;19;20019;-71
2022/12/03 08:39:32;;;;;;;77.82;28.35;;;1.30;99.90;;;;;;7590614;19;20007;-71
2022/12/03 08:45:39;;;;;;;76.72;27.95;;;1.50;99.90;;;;;;7577008;19;19941;-71
2022/12/03 08:48:17;;;;;;;84.68;27.58;;;1.50;99.90;;;;;;7573290;19;20011;-70
2022/12/03 08:50:49;;;;;;;78.68;27.85;;;1.40;99.90;;;;;;7566846;19;20017;-71
2022/12/03 08:53:34;;;;;;;80.40;27.58;;;1.40;99.90;;;;;;7573807;19;20026;-72
2022/12/03 08:56:23;;;;;;;70.88;25.40;;;1.30;99.90;;;;;;7548112;19;21388;-72
2022/12/03 08:59:22;;;;;;;71.35;26.45;;;1.40;99.90;;;;;;7575520;19;20018;-74
2022/12/03 09:01:56;;;;;;;70.03;26.50;;;1.40;99.90;;;;;;7565810;19;20017;-72
2022/12/03 09:04:37;;;;;;;71.68;26.23;;;1.40;99.90;;;;;;7570995;19;20010;-73
2022/12/03 09:07:09;;;;;;;56.72;23.30;;;1.50;99.90;;;;;;7574818;19;20099;-72
2022/12/03 09:09:42;;;;;;;38.83;16.10;;;1.50;99.90;;;;;;7569877;19;20025;-74
2022/12/03 09:12:14;;;;;;;58.97;21.83;;;1.50;99.90;;;;;;7568065;19;20014;-73
2022/12/03 09:14:46;;;;;;;61.58;25.70;;;1.50;99.90;;;;;;7574063;19;22559;-73
2022/12/03 09:17:20;;;;;;;67.30;24.83;;;1.50;99.90;;;;;;7579767;19;20014;-73
2022/12/03 09:19:52;;;;;;;66.07;24.25;;;1.50;99.90;;;;;;7548233;19;20015;-74
2022/12/03 09:22:24;;;;;;;54.00;22.40;;;1.40;99.90;;;;;;7579378;19;20015;-73
2022/12/03 14:55:06;;;;;;;83.40;28.00;;;0.60;99.90;;;;;;7612312;19;20352;-70
2022/12/03 14:57:41;;;;;;;85.15;29.60;;;0.60;99.90;;;;;;7570057;19;20051;-71
2022/12/03 15:00:14;;;;;;;83.80;29.47;;;0.60;99.90;;;;;;7594366;19;20010;-70
2022/12/03 15:02:46;;;;;;;80.55;27.70;;;0.70;99.90;;;;;;7579179;19;20029;-71
2022/12/03 15:05:20;;;;;;;76.10;27.83;;;0.80;99.90;;;;;;7594400;19;20011;-70
2022/12/03 15:07:59;;;;;;;69.88;27.58;;;0.80;99.90;;;;;;7572000;19;20014;-70
2022/12/03 15:10:32;;;;;;;74.53;26.63;;;0.80;99.90;;;;;;7582191;19;20026;-69
2022/12/03 15:13:04;;;;;;;67.90;26.02;;;0.90;99.90;;;;;;7613710;19;20075;-69
2022/12/03 15:15:37;;;;;;;72.85;26.02;;;0.90;99.90;;;;;;7610396;19;20021;-70
2022/12/03 15:18:09;;;;;;;76.07;26.20;;;1.00;99.90;;;;;;7587910;19;20089;-69
2022/12/03 15:20:41;;;;;;;78.30;28.52;;;1.00;99.90;;;;;;7570461;19;20098;-70
2022/12/03 15:23:13;;;;;;;76.75;27.67;;;1.00;99.90;;;;;;7581472;19;21091;-69
2022/12/03 15:25:46;;;;;;;83.13;28.43;;;1.00;99.90;;;;;;7566230;19;20064;-72
2022/12/03 15:28:18;;;;;;;80.90;29.77;;;1.00;99.90;;;;;;7601258;19;20018;-71
2022/12/03 15:30:50;;;;;;;78.77;29.97;;;1.00;99.90;;;;;;7614866;19;21299;-71
2022/12/03 15:33:23;;;;;;;83.05;29.63;;;1.00;99.90;;;;;;7619080;19;20473;-71
2022/12/03 15:35:55;;;;;;;88.45;31.08;;;1.10;99.90;;;;;;7622430;19;20553;-71
2022/12/03 15:38:27;;;;;;;81.63;29.65;;;1.10;99.90;;;;;;7619430;19;20018;-71
2022/12/03 15:41:19;;;;;;;75.78;27.90;;;1.00;99.90;;;;;;7609351;19;20015;-71
2022/12/03 15:43:51;;;;;;;77.22;27.75;;;1.00;99.90;;;;;;7601415;19;20102;-71
2022/12/03 15:46:24;;;;;;;73.88;27.88;;;1.10;99.90;;;;;;7616035;19;21294;-71
2022/12/03 15:48:57;;;;;;;78.28;28.92;;;1.10;99.90;;;;;;7621283;19;20010;-71
2022/12/03 15:51:29;;;;;;;76.30;28.20;;;1.10;99.90;;;;;;7615387;19;20021;-71
2022/12/03 15:54:01;;;;;;;82.30;27.25;;;1.10;99.90;;;;;;7599033;19;20050;-71
2022/12/03 15:56:36;;;;;;;75.05;28.55;;;1.00;99.90;;;;;;7614164;19;20010;-71
2022/12/03 15:59:08;;;;;;;72.97;28.13;;;1.10;99.90;;;;;;7620486;19;20010;-70
2022/12/03 16:01:40;;;;;;;83.72;30.20;;;1.00;99.90;;;;;;7635421;19;21187;-71
2022/12/03 16:04:12;;;;;;;82.45;32.22;;;0.90;99.90;;;;;;7604645;19;20410;-71
2022/12/03 16:06:44;;;;;;;76.03;28.90;;;0.90;99.90;;;;;;7594245;19;20018;-72
2022/12/03 16:09:16;;;;;;;102.93;44.90;;;1.00;99.90;;;;;;7600700;19;20026;-71
2022/12/03 16:11:56;;;;;;;84.65;29.98;;;1.00;99.90;;;;;;7576309;19;20022;-71
2022/12/03 16:14:28;;;;;;;92.85;36.58;;;1.10;99.90;;;;;;7599682;19;20582;-72
2022/12/03 16:17:01;;;;;;;89.07;36.55;;;1.10;99.90;;;;;;7590313;19;20025;-71
2022/12/03 16:19:33;;;;;;;98.88;42.08;;;1.00;99.90;;;;;;7552707;19;20018;-69
2022/12/03 16:22:06;;;;;;;95.32;36.80;;;1.00;99.90;;;;;;7556423;19;20013;-69
2022/12/03 16:24:38;;;;;;;107.30;47.92;;;1.00;99.90;;;;;;7568481;19;20017;-70
2022/12/03 16:27:10;;;;;;;116.75;45.80;;;0.90;99.90;;;;;;7593275;19;20026;-70
2022/12/03 16:29:42;;;;;;;122.80;52.90;;;1.00;99.90;;;;;;7599004;19;20487;-70
2022/12/03 16:32:15;;;;;;;213.80;118.25;;;1.00;99.90;;;;;;7579186;19;20014;-70
2022/12/03 16:34:48;;;;;;;128.68;44.72;;;1.00;99.90;;;;;;7571237;19;20022;-71
2022/12/03 16:37:20;;;;;;;140.75;52.20;;;1.00;99.90;;;;;;7565539;19;20029;-70
2022/12/03 16:39:54;;;;;;;99.45;37.42;;;1.00;99.90;;;;;;7573110;19;20010;-67
2022/12/03 16:42:27;;;;;;;127.80;44.58;;;0.90;99.90;;;;;;7546267;19;20018;-69
2022/12/03 16:47:34;;;;;;;112.13;36.80;;;1.00;99.90;;;;;;7567368;19;20475;-69
2022/12/03 16:50:08;;;;;;;107.40;39.67;;;1.00;99.90;;;;;;7565660;19;20660;-69
2022/12/03 16:52:48;;;;;;;115.38;38.95;;;1.00;99.90;;;;;;7573903;19;20375;-69
2022/12/03 16:55:21;;;;;;;145.30;50.40;;;0.90;99.90;;;;;;7587308;19;20018;-69
2022/12/03 16:57:53;;;;;;;120.90;42.33;;;0.90;99.90;;;;;;7572064;19;20014;-70
2022/12/03 17:00:25;;;;;;;136.80;44.60;;;0.90;99.90;;;;;;7558143;19;20035;-69
2022/12/03 17:02:57;;;;;;;148.63;45.05;;;0.90;99.90;;;;;;7557261;19;20014;-69
2022/12/03 17:05:29;;;;;;;145.80;41.88;;;0.90;99.90;;;;;;7527013;19;20105;-69
2022/12/03 17:08:01;;;;;;;127.50;42.35;;;1.00;99.90;;;;;;7565600;19;20721;-69
2022/12/03 17:10:34;;;;;;;170.05;46.50;;;1.00;99.90;;;;;;7571853;19;20029;-67
2022/12/03 17:13:06;;;;;;;176.82;45.05;;;1.00;99.90;;;;;;7585213;19;20018;-69
2022/12/03 17:15:41;;;;;;;168.68;43.47;;;1.00;99.90;;;;;;7578610;19;20057;-69
2022/12/03 17:18:13;;;;;;;187.93;48.95;;;0.90;99.90;;;;;;7551804;19;20018;-68
2022/12/03 17:20:45;;;;;;;162.65;45.58;;;0.90;99.90;;;;;;7553320;19;20015;-72
2022/12/03 17:23:17;;;;;;;188.88;46.65;;;0.90;99.90;;;;;;7574700;19;20795;-69
2022/12/03 17:25:50;;;;;;;223.65;56.28;;;0.90;99.90;;;;;;7567971;19;20023;-69
2022/12/03 17:28:22;;;;;;;176.88;51.67;;;0.90;99.90;;;;;;7563421;19;20810;-69
2022/12/03 17:30:54;;;;;;;158.32;51.65;;;0.80;99.90;;;;;;7579626;19;20629;-69
2022/12/03 17:33:29;;;;;;;182.55;47.72;;;0.90;99.90;;;;;;7566407;19;20022;-68
2022/12/03 17:36:01;;;;;;;151.73;44.85;;;0.90;99.90;;;;;;7604874;19;20166;-68
2022/12/03 17:38:33;;;;;;;167.43;48.70;;;0.90;99.90;;;;;;7603408;19;20567;-69
2022/12/03 17:41:10;;;;;;;179.30;50.75;;;1.00;99.90;;;;;;7569880;19;20490;-68
2022/12/03 17:43:42;;;;;;;195.18;49.38;;;0.90;99.90;;;;;;7559662;19;20018;-69
2022/12/03 17:46:14;;;;;;;191.73;48.83;;;1.00;99.90;;;;;;7563833;19;20015;-69
2022/12/03 17:48:46;;;;;;;226.98;52.67;;;0.90;99.90;;;;;;7577504;19;20045;-69
2022/12/03 17:51:19;;;;;;;185.57;44.10;;;0.90;99.90;;;;;;7575915;19;20113;-69
2022/12/03 17:53:51;;;;;;;200.50;55.05;;;0.90;99.90;;;;;;7576956;19;20025;-69
2022/12/03 17:56:24;;;;;;;222.90;49.58;;;0.80;99.90;;;;;;7573623;19;20027;-71
2022/12/03 17:58:57;;;;;;;187.23;44.50;;;0.80;99.90;;;;;;7559564;19;20036;-71
2022/12/03 18:01:29;;;;;;;250.43;52.10;;;0.80;99.90;;;;;;7554632;19;20044;-71
2022/12/03 18:04:01;;;;;;;188.05;49.72;;;0.80;99.90;;;;;;7566427;19;20010;-68
2022/12/03 18:06:34;;;;;;;187.40;55.95;;;0.70;99.90;;;;;;7567537;19;20026;-71
2022/12/03 18:09:06;;;;;;;178.90;51.63;;;0.70;99.90;;;;;;7559676;19;20027;-71
2022/12/03 18:11:39;;;;;;;247.95;56.60;;;0.70;99.90;;;;;;7565995;19;20366;-71
2022/12/03 18:14:12;;;;;;;201.95;58.17;;;0.70;99.90;;;;;;7567190;19;20022;-71
2022/12/03 18:16:44;;;;;;;178.60;50.03;;;0.70;99.90;;;;;;7579236;19;20726;-71
2022/12/03 18:19:16;;;;;;;194.20;58.90;;;0.70;99.90;;;;;;7580991;19;20018;-71
2022/12/03 18:21:48;;;;;;;190.65;53.17;;;0.70;99.90;;;;;;7582757;19;20056;-71
2022/12/03 18:24:20;;;;;;;216.57;52.78;;;0.70;99.90;;;;;;7589380;19;20024;-70
2022/12/03 18:26:52;;;;;;;222.70;52.17;;;0.70;99.90;;;;;;7583391;19;20018;-71
2022/12/03 18:29:24;;;;;;;270.90;70.22;;;0.60;99.90;;;;;;7572225;19;20018;-71
2022/12/03 18:31:57;;;;;;;210.77;66.97;;;0.60;99.90;;;;;;7595963;19;20015;-71
2022/12/03 18:34:29;;;;;;;202.00;54.08;;;0.60;99.90;;;;;;7590578;19;20018;-70
2022/12/03 18:37:01;;;;;;;301.55;95.68;;;0.70;99.90;;;;;;7591907;19;20738;-71
2022/12/03 18:39:35;;;;;;;372.25;107.53;;;0.70;99.90;;;;;;7566596;19;20422;-70
2022/12/03 18:42:21;;;;;;;239.20;72.53;;;0.70;99.90;;;;;;7552128;19;20070;-70
2022/12/03 18:44:55;;;;;;;289.45;74.15;;;0.70;99.90;;;;;;6544230;19;10000259;-71
2022/12/03 18:47:28;;;;;;;235.35;71.75;;;0.60;99.90;;;;;;7525344;19;20056;-71
2022/12/03 18:50:00;;;;;;;185.02;56.30;;;0.70;99.90;;;;;;7540522;19;20026;-71
2022/12/03 18:52:33;;;;;;;207.38;52.08;;;0.70;99.90;;;;;;7572537;19;20095;-71
2022/12/03 18:55:06;;;;;;;202.57;58.70;;;0.80;99.90;;;;;;7570196;19;20682;-71
2022/12/03 18:57:38;;;;;;;227.80;61.88;;;0.70;99.90;;;;;;7570013;19;20015;-70
2022/12/03 19:00:12;;;;;;;214.13;62.05;;;0.70;99.90;;;;;;7565258;19;20775;-71
2022/12/03 19:02:44;;;;;;;239.63;63.63;;;0.70;99.90;;;;;;7567244;19;20014;-71
2022/12/03 19:05:35;;;;;;;249.05;53.13;;;0.70;99.90;;;;;;7561525;19;20011;-71
2022/12/03 19:08:13;;;;;;;175.33;46.30;;;0.80;99.90;;;;;;7558019;19;20011;-70
2022/12/03 19:10:55;;;;;;;213.43;50.10;;;0.70;99.90;;;;;;7571787;19;20029;-71
2022/12/03 19:13:27;;;;;;;191.77;45.92;;;0.70;99.90;;;;;;7568907;19;20033;-70
2022/12/03 19:16:04;;;;;;;214.90;47.63;;;0.70;99.90;;;;;;7564803;19;21125;-69
2022/12/03 19:18:37;;;;;;;183.07;46.45;;;0.70;99.90;;;;;;7560238;19;20044;-70
2022/12/03 19:21:12;;;;;;;183.63;42.83;;;0.70;99.90;;;;;;7559388;19;23765;-70
2022/12/03 19:23:44;;;;;;;194.40;46.15;;;0.70;99.90;;;;;;7578032;19;20038;-70
2022/12/03 19:26:36;;;;;;;155.00;42.60;;;0.80;99.90;;;;;;7568752;19;20014;-70
2022/12/03 19:29:09;;;;;;;215.07;47.60;;;0.80;99.90;;;;;;7551555;19;20025;-70
2022/12/03 19:31:41;;;;;;;208.25;47.67;;;0.80;99.90;;;;;;7547591;19;20022;-70
2022/12/03 19:34:14;;;;;;;183.55;43.38;;;0.70;99.90;;;;;;7545224;19;20025;-70
2022/12/03 19:36:46;;;;;;;202.60;48.42;;;0.70;99.90;;;;;;7578710;19;20018;-69
2022/12/03 19:39:19;;;;;;;198.77;45.27;;;0.70;99.90;;;;;;7565063;19;20015;-70
2022/12/03 19:41:51;;;;;;;203.03;49.20;;;0.70;99.90;;;;;;7573804;19;20022;-70
2022/12/03 19:44:24;;;;;;;206.35;48.35;;;0.80;99.90;;;;;;7559251;19;20022;-71
2022/12/03 19:46:56;;;;;;;239.85;50.47;;;0.70;99.90;;;;;;7572139;19;20011;-72
2022/12/03 19:49:29;;;;;;;178.27;45.40;;;0.80;99.90;;;;;;7561588;19;20497;-69
2022/12/03 19:52:01;;;;;;;147.32;40.67;;;0.80;99.90;;;;;;7572054;19;20039;-70
2022/12/03 19:54:33;;;;;;;187.65;44.85;;;0.70;99.90;;;;;;7548457;19;20010;-70
2022/12/03 19:57:05;;;;;;;195.05;45.75;;;0.70;99.90;;;;;;7570185;19;20057;-70
2022/12/03 19:59:38;;;;;;;176.67;43.60;;;0.70;99.90;;;;;;7573854;19;20007;-69
2022/12/03 20:02:11;;;;;;;195.75;45.90;;;0.80;99.90;;;;;;7570490;19;21879;-70
2022/12/03 20:04:43;;;;;;;169.07;39.60;;;0.70;99.90;;;;;;7563305;19;21222;-69
2022/12/03 20:07:15;;;;;;;192.35;42.95;;;0.80;99.90;;;;;;7545640;19;20848;-70
2022/12/03 20:09:50;;;;;;;172.57;43.10;;;0.80;99.90;;;;;;7565958;19;20025;-70
2022/12/03 20:12:22;;;;;;;199.73;42.90;;;0.80;99.90;;;;;;7576041;19;20050;-70
2022/12/03 20:14:55;;;;;;;209.48;45.63;;;0.80;99.90;;;;;;7572693;19;20018;-70
2022/12/03 20:17:27;;;;;;;228.88;48.17;;;0.80;99.90;;;;;;7547326;19;20019;-71
2022/12/03 20:20:00;;;;;;;257.15;49.60;;;0.80;99.90;;;;;;7561898;19;20774;-71
2022/12/03 20:22:32;;;;;;;237.73;46.40;;;0.80;99.90;;;;;;7535998;19;20014;-71
2022/12/03 20:25:04;;;;;;;151.88;41.50;;;0.70;99.90;;;;;;7551376;19;20021;-71
2022/12/03 20:27:37;;;;;;;293.15;54.72;;;0.80;99.90;;;;;;7538613;19;20029;-73
2022/12/03 20:30:10;;;;;;;194.43;45.25;;;0.80;99.90;;;;;;7572998;19;20011;-73
2022/12/03 20:32:42;;;;;;;210.77;44.08;;;0.80;99.90;;;;;;7573276;19;20015;-72
2022/12/03 20:35:16;;;;;;;222.65;47.97;;;0.80;99.90;;;;;;7564644;19;20022;-71
2022/12/03 20:37:48;;;;;;;278.58;49.90;;;0.80;99.90;;;;;;7582437;19;20648;-73
2022/12/03 20:40:21;;;;;;;188.88;43.97;;;0.90;99.90;;;;;;7577350;19;20022;-72
2022/12/03 20:42:53;;;;;;;193.95;45.03;;;0.90;99.90;;;;;;7576611;19;20014;-73
2022/12/03 20:45:26;;;;;;;213.90;45.38;;;0.90;99.90;;;;;;7578807;19;20025;-73
2022/12/03 20:47:58;;;;;;;169.65;42.53;;;0.90;99.90;;;;;;7581483;19;20018;-71
2022/12/03 20:50:30;;;;;;;192.60;45.60;;;0.90;99.90;;;;;;7571454;19;20060;-73
2022/12/03 20:53:02;;;;;;;189.35;43.25;;;0.90;99.90;;;;;;7590369;19;20029;-70
2022/12/03 20:55:58;;;;;;;211.82;45.60;;;0.90;99.90;;;;;;7576701;19;20017;-73
2022/12/03 20:58:31;;;;;;;192.77;43.67;;;0.90;99.90;;;;;;7584720;19;21376;-73
2022/12/03 21:01:09;;;;;;;224.07;46.63;;;0.90;99.90;;;;;;7590422;19;20019;-72
2022/12/03 21:03:47;;;;;;;242.48;48.17;;;0.90;99.90;;;;;;7580973;19;20350;-72
2022/12/03 21:06:21;;;;;;;186.70;46.17;;;0.90;99.90;;;;;;7569621;19;20018;-72
2022/12/03 21:08:56;;;;;;;239.80;48.08;;;0.90;99.90;;;;;;7579136;19;20014;-72
2022/12/03 21:11:30;;;;;;;169.70;40.78;;;0.90;99.90;;;;;;7581945;19;20019;-72
2022/12/03 21:14:03;;;;;;;184.88;44.13;;;0.90;99.90;;;;;;7568599;19;20028;-73
2022/12/03 21:16:38;;;;;;;210.40;45.60;;;0.90;99.90;;;;;;7562660;19;20018;-72
2022/12/03 21:19:30;;;;;;;193.88;43.63;;;0.80;99.90;;;;;;7551052;19;20022;-73
2022/12/03 21:22:02;;;;;;;172.55;42.58;;;0.80;99.90;;;;;;7570052;19;20033;-73
2022/12/03 21:24:35;;;;;;;214.25;45.80;;;0.90;99.90;;;;;;7557175;19;20017;-70
2022/12/03 21:27:07;;;;;;;192.23;45.35;;;0.90;99.90;;;;;;7557591;19;20105;-73
2022/12/03 21:29:39;;;;;;;151.57;39.17;;;1.00;99.90;;;;;;7562763;19;20026;-73
2022/12/03 21:32:12;;;;;;;194.53;45.47;;;1.00;99.90;;;;;;7562231;19;20026;-72
2022/12/03 21:34:44;;;;;;;174.60;43.08;;;1.00;99.90;;;;;;7571245;19;20039;-73
2022/12/03 21:37:16;;;;;;;206.35;48.67;;;1.00;99.90;;;;;;7563889;19;20046;-72
